Hassi R'Mel Airport

Jump to: basic info | weather | runways | comments

Related pages: nearby airports | nearby navaids | notams | map

Basic information (top)

Codes: HRM DAFH
Location: lon 32.930401, lat 3.311540, elev 2,540 ft / 774 m msl
Status: medium_airport
Scheduled airline service: yes
Links: Wikipedia Mobile

Weather (top)

Current conditions (rec'd 2014/04/19 07:00Z):

DAFH 190700Z /////KT CAVOK 20/11 Q1013

Airport forecast (rec'd 2013/12/24 15:48Z):

TAF DAFH 241400Z 2415/2503 24012KT 9999 SCT030

Runways (top)

08/26: 9,835 x 148 ft (2,998 x 45 m) — paved — not lighted

09/27: 4,695 x 100 ft (1,431 x 30 m) — paved — not lighted — threshold 09 displaced 280 ft (85 m)

Latest comments (top)

No comments yet for Hassi R'Mel Airport

More... (top)

See also NOTAMs and nearby airports and navaids, or visit the Hassi R'Mel Airport page at the main OurAirports website..